createdAt,value
2023-01-26T00:01:45.488Z,5.05
2023-01-26T00:04:30.593Z,3.67
2023-01-26T00:07:15.946Z,3.90
2023-01-26T00:10:01.191Z,4.25
2023-01-26T00:12:46.208Z,3.70
2023-01-26T00:15:36.122Z,3.50
2023-01-26T00:21:07.860Z,2.90
2023-01-26T00:23:53.370Z,2.95
2023-01-26T00:26:38.433Z,2.85
2023-01-26T00:29:23.421Z,2.60
2023-01-26T00:32:08.533Z,2.95
2023-01-26T00:34:53.552Z,2.63
2023-01-26T00:37:41.571Z,3.13
2023-01-26T00:40:26.804Z,2.35
2023-01-26T00:43:12.137Z,2.30
2023-01-26T00:45:58.252Z,2.30
2023-01-26T00:48:43.072Z,2.17
2023-01-26T00:51:28.157Z,2.63
2023-01-26T00:54:13.394Z,1.95
2023-01-26T00:56:58.860Z,2.70
2023-01-26T00:59:44.124Z,2.40
2023-01-26T01:02:29.238Z,2.65
2023-01-26T01:05:14.382Z,2.15
2023-01-26T01:07:59.788Z,2.25
2023-01-26T01:10:45.045Z,2.35
2023-01-26T01:13:30.173Z,2.20
2023-01-26T01:16:16.674Z,2.67
2023-01-26T01:19:01.947Z,2.47
2023-01-26T01:21:47.142Z,2.78
2023-01-26T01:24:34.428Z,2.55
2023-01-26T01:27:19.475Z,3.00
2023-01-26T01:30:07.940Z,2.50
2023-01-26T01:32:53.564Z,2.40
2023-01-26T01:35:38.454Z,2.70
2023-01-26T01:38:23.480Z,2.47
2023-01-26T01:41:09.296Z,2.75
2023-01-26T01:44:14.436Z,2.88
2023-01-26T01:47:04.027Z,2.58
2023-01-26T01:49:52.435Z,2.72
2023-01-26T01:52:37.667Z,2.83
2023-01-26T01:55:23.279Z,2.20
2023-01-26T01:58:09.623Z,2.30
2023-01-26T02:00:55.448Z,2.63
2023-01-26T02:03:42.706Z,2.80
2023-01-26T02:06:30.952Z,1.80
2023-01-26T02:09:36.162Z,2.47
2023-01-26T02:12:25.324Z,2.40
2023-01-26T02:15:10.913Z,2.58
2023-01-26T02:17:57.555Z,2.88
2023-01-26T02:20:45.912Z,2.67
2023-01-26T02:23:58.766Z,2.92
2023-01-26T02:26:43.788Z,2.65
2023-01-26T02:29:29.129Z,2.85
2023-01-26T02:32:14.569Z,2.63
2023-01-26T02:34:59.744Z,2.90
2023-01-26T02:37:44.883Z,2.13
2023-01-26T02:40:45.970Z,2.65
2023-01-26T02:43:32.682Z,3.28
2023-01-26T02:46:17.770Z,3.40
2023-01-26T02:49:21.364Z,3.15
2023-01-26T02:52:07.565Z,3.20
2023-01-26T02:55:12.035Z,3.75
2023-01-26T02:58:04.346Z,4.10
2023-01-26T03:00:49.522Z,2.95
2023-01-26T03:03:45.100Z,3.55
2023-01-26T03:06:30.294Z,3.60
2023-01-26T03:09:15.436Z,4.00
2023-01-26T03:12:00.286Z,3.97
2023-01-26T03:14:45.418Z,3.90
2023-01-26T03:17:30.542Z,4.00
2023-01-26T03:20:34.323Z,3.88
2023-01-26T03:23:38.347Z,4.28
2023-01-26T03:26:42.344Z,4.10
2023-01-26T03:29:27.733Z,4.40
2023-01-26T03:32:13.202Z,4.00
2023-01-26T03:34:58.231Z,4.15
2023-01-26T03:37:44.735Z,4.07
2023-01-26T03:40:48.416Z,5.10
2023-01-26T03:43:52.192Z,4.65
2023-01-26T03:46:56.192Z,4.40
2023-01-26T03:49:59.851Z,4.47
2023-01-26T03:53:03.840Z,5.38
2023-01-26T03:56:07.677Z,5.10
2023-01-26T03:58:55.135Z,5.22
2023-01-26T04:02:01.427Z,5.20
2023-01-26T04:05:05.437Z,4.93
2023-01-26T04:08:09.335Z,5.88
2023-01-26T04:10:55.516Z,5.97
2023-01-26T04:13:59.053Z,6.03
2023-01-26T04:17:03.027Z,6.13
2023-01-26T04:20:07.244Z,5.65
2023-01-26T04:22:52.689Z,6.07
2023-01-26T04:25:37.864Z,5.85
2023-01-26T04:28:22.860Z,6.20
2023-01-26T04:31:08.720Z,5.97
2023-01-26T04:33:54.120Z,5.57
2023-01-26T04:36:39.807Z,5.90
2023-01-26T04:39:24.793Z,5.75
2023-01-26T04:42:09.737Z,5.13
2023-01-26T04:44:54.987Z,5.68
2023-01-26T04:47:40.255Z,5.60
2023-01-26T04:50:25.309Z,5.22
2023-01-26T04:53:10.360Z,5.30
2023-01-26T04:55:55.580Z,4.63
2023-01-26T04:58:40.881Z,5.18
2023-01-26T05:01:26.601Z,5.05
2023-01-26T05:04:13.096Z,4.78
2023-01-26T05:06:58.534Z,5.20
2023-01-26T05:09:43.761Z,5.15
2023-01-26T05:12:34.655Z,4.80
2023-01-26T05:15:19.596Z,4.75
2023-01-26T05:18:06.130Z,4.53
2023-01-26T05:20:51.246Z,4.75
2023-01-26T05:23:36.879Z,4.60
2023-01-26T05:26:22.158Z,4.25
2023-01-26T05:29:07.907Z,4.95
2023-01-26T05:31:52.864Z,5.50
2023-01-26T05:34:38.624Z,5.38
2023-01-26T05:37:28.306Z,4.18
2023-01-26T05:40:14.020Z,4.78
2023-01-26T05:42:59.719Z,4.90
2023-01-26T05:45:44.828Z,4.28
2023-01-26T05:48:30.171Z,3.83
2023-01-26T05:51:15.291Z,4.28
2023-01-26T05:54:00.382Z,4.18
2023-01-26T05:56:45.371Z,3.85
2023-01-26T05:59:30.568Z,4.13
2023-01-26T06:02:15.350Z,4.97
2023-01-26T06:05:00.537Z,4.18
2023-01-26T06:07:45.526Z,4.18
2023-01-26T06:10:30.602Z,4.00
2023-01-26T06:13:15.893Z,4.03
2023-01-26T06:16:01.945Z,4.20
2023-01-26T06:18:49.906Z,5.00
2023-01-26T06:21:35.157Z,4.15
2023-01-26T06:24:20.394Z,4.15
2023-01-26T06:27:11.734Z,3.60
2023-01-26T06:29:57.129Z,3.97
2023-01-26T06:32:42.438Z,4.00
2023-01-26T06:35:27.633Z,3.30
2023-01-26T06:38:15.316Z,3.80
2023-01-26T06:41:03.007Z,4.53
2023-01-26T06:43:49.256Z,3.45
2023-01-26T06:46:34.758Z,4.72
2023-01-26T06:49:19.843Z,3.65
2023-01-26T06:52:31.948Z,3.17
2023-01-26T06:55:22.607Z,2.85
2023-01-26T06:58:07.549Z,3.10
2023-01-26T07:00:52.991Z,3.60
2023-01-26T07:03:38.263Z,3.17
2023-01-26T07:06:23.490Z,3.10
2023-01-26T07:09:08.396Z,3.58
2023-01-26T07:11:53.271Z,3.65
2023-01-26T07:14:38.923Z,4.05
2023-01-26T07:17:24.212Z,3.38
2023-01-26T07:20:11.394Z,4.07
2023-01-26T07:22:56.599Z,4.28
2023-01-26T07:25:44.223Z,3.97
2023-01-26T07:28:30.601Z,4.17
2023-01-26T07:31:16.114Z,3.90
2023-01-26T07:34:01.221Z,4.53
2023-01-26T07:36:46.432Z,4.20
2023-01-26T07:39:31.842Z,4.05
2023-01-26T07:42:16.909Z,3.92
2023-01-26T07:45:02.321Z,4.18
2023-01-26T07:47:48.040Z,4.40
2023-01-26T07:50:33.203Z,4.07
2023-01-26T07:53:22.949Z,4.63
2023-01-26T07:56:10.890Z,4.22
2023-01-26T07:58:56.127Z,4.25
2023-01-26T08:01:41.447Z,4.15
2023-01-26T08:04:27.003Z,4.32
2023-01-26T08:07:11.980Z,4.00
2023-01-26T08:09:59.001Z,3.72
2023-01-26T08:12:43.827Z,3.83
2023-01-26T08:15:29.076Z,3.95
2023-01-26T08:18:14.345Z,3.92
2023-01-26T08:21:00.358Z,3.88
2023-01-26T08:23:50.319Z,3.80
2023-01-26T08:26:51.053Z,3.80
2023-01-26T08:29:36.196Z,4.45
2023-01-26T08:32:21.582Z,4.10
2023-01-26T08:35:07.174Z,4.25
2023-01-26T08:37:52.466Z,4.35
2023-01-26T08:40:38.052Z,4.25
2023-01-26T08:43:23.002Z,4.53
2023-01-26T08:46:08.568Z,4.97
2023-01-26T08:48:53.615Z,4.95
2023-01-26T08:51:38.582Z,4.50
2023-01-26T08:54:23.611Z,4.32
2023-01-26T08:57:08.771Z,4.72
2023-01-26T08:59:53.757Z,5.40
2023-01-26T09:02:39.103Z,5.15
2023-01-26T09:05:24.143Z,4.88
2023-01-26T09:08:09.661Z,4.50
2023-01-26T09:10:54.989Z,4.65
2023-01-26T09:13:40.467Z,5.00
2023-01-26T09:16:25.744Z,4.53
2023-01-26T09:19:11.047Z,4.55
2023-01-26T09:21:56.268Z,4.40
2023-01-26T09:24:41.155Z,4.38
2023-01-26T09:27:26.296Z,4.93
2023-01-26T09:30:12.224Z,4.95
2023-01-26T09:33:02.219Z,4.57
2023-01-26T09:38:32.992Z,4.22
2023-01-26T09:41:35.006Z,4.22
2023-01-26T09:44:24.964Z,3.97
2023-01-26T09:50:33.979Z,4.25
2023-01-26T09:53:25.956Z,3.90
2023-01-26T09:56:18.417Z,5.28
2023-01-26T09:59:32.008Z,3.80
2023-01-26T10:02:16.827Z,4.35
2023-01-26T10:05:13.837Z,4.47
2023-01-26T10:07:59.396Z,4.30
2023-01-26T10:10:49.408Z,4.45
2023-01-26T10:13:34.631Z,4.97
2023-01-26T10:16:19.669Z,4.57
2023-01-26T10:19:12.720Z,4.35
2023-01-26T10:22:00.590Z,4.93
2023-01-26T10:24:49.256Z,5.07
2023-01-26T10:27:34.209Z,5.30
2023-01-26T10:30:21.286Z,5.20
2023-01-26T10:33:16.389Z,4.78
2023-01-26T10:36:03.914Z,5.18
2023-01-26T10:38:50.345Z,4.80
2023-01-26T10:41:36.216Z,4.47
2023-01-26T10:44:28.910Z,4.68
2023-01-26T10:47:19.819Z,4.35
2023-01-26T10:50:21.781Z,4.85
2023-01-26T10:53:06.625Z,4.28
2023-01-26T10:56:04.323Z,4.60
2023-01-26T10:58:58.932Z,4.30
2023-01-26T11:02:00.908Z,4.88
2023-01-26T11:05:25.752Z,4.72
2023-01-26T11:08:37.129Z,4.80
2023-01-26T11:11:27.187Z,5.20
2023-01-26T11:17:21.309Z,4.17
2023-01-26T11:20:18.401Z,4.65
2023-01-26T11:23:29.401Z,4.60
2023-01-26T11:26:26.764Z,5.00
2023-01-26T11:29:36.670Z,4.72
2023-01-26T11:32:47.099Z,4.10
2023-01-26T11:35:39.497Z,4.57
2023-01-26T11:38:38.264Z,3.92
2023-01-26T11:41:28.003Z,4.07
2023-01-26T11:47:27.126Z,3.88
2023-01-26T11:50:45.610Z,4.35
2023-01-26T11:54:09.077Z,4.32
2023-01-26T11:57:10.714Z,3.65
2023-01-26T12:00:05.560Z,3.42
2023-01-26T12:03:05.352Z,3.33
2023-01-26T12:05:54.157Z,3.20
2023-01-26T12:08:43.864Z,3.45
2023-01-26T12:11:39.167Z,3.28
2023-01-26T12:14:40.714Z,3.50
2023-01-26T12:17:36.135Z,3.30
2023-01-26T12:20:42.482Z,3.45
2023-01-26T12:24:35.786Z,2.97
2023-01-26T12:27:28.324Z,3.00
2023-01-26T12:30:19.358Z,2.78
2023-01-26T12:33:04.371Z,3.05
2023-01-26T12:36:20.853Z,3.25
2023-01-26T12:39:08.748Z,3.30
2023-01-26T12:42:12.129Z,3.40
2023-01-26T12:45:02.224Z,3.78
2023-01-26T12:47:56.749Z,2.70
2023-01-26T12:50:47.038Z,3.53
2023-01-26T12:56:32.692Z,3.38
2023-01-26T12:59:47.185Z,2.83
2023-01-26T13:02:32.296Z,2.97
2023-01-26T13:05:33.798Z,2.70
2023-01-26T13:08:31.148Z,2.28
2023-01-26T13:11:56.569Z,2.63
2023-01-26T13:14:44.987Z,2.80
2023-01-26T13:17:50.452Z,3.35
2023-01-26T13:20:43.319Z,3.00
2023-01-26T13:23:28.615Z,3.60
2023-01-26T13:26:25.456Z,2.65
2023-01-26T13:29:28.917Z,2.97
2023-01-26T13:32:14.453Z,2.75
2023-01-26T13:35:04.009Z,3.80
2023-01-26T13:37:53.359Z,3.33
2023-01-26T13:40:43.989Z,2.75
2023-01-26T13:43:42.293Z,2.85
2023-01-26T13:46:39.797Z,3.47
2023-01-26T13:49:38.021Z,2.67
2023-01-26T13:52:26.283Z,3.47
2023-01-26T13:55:22.470Z,3.28
2023-01-26T13:58:15.593Z,2.88
2023-01-26T14:01:06.637Z,3.17
2023-01-26T14:04:06.568Z,3.38
2023-01-26T14:09:49.722Z,3.38
2023-01-26T14:12:41.684Z,3.03
2023-01-26T14:15:29.589Z,3.22
2023-01-26T14:18:22.467Z,3.40
2023-01-26T14:21:18.807Z,3.38
2023-01-26T14:24:09.128Z,2.65
2023-01-26T14:26:54.522Z,3.33
2023-01-26T14:29:39.711Z,3.92
2023-01-26T14:32:29.221Z,3.22
2023-01-26T14:35:23.369Z,3.17
2023-01-26T14:38:11.642Z,4.18
2023-01-26T14:40:59.459Z,3.70
2023-01-26T14:43:44.709Z,3.53
2023-01-26T14:46:30.079Z,3.38
2023-01-26T14:49:25.671Z,3.88
2023-01-26T14:52:24.031Z,3.47
2023-01-26T14:55:24.363Z,4.85
2023-01-26T14:58:19.862Z,3.63
2023-01-26T15:01:05.588Z,3.10
2023-01-26T15:03:56.603Z,2.55
2023-01-26T15:06:41.563Z,9.35
2023-01-26T15:09:28.443Z,5.00
2023-01-26T15:12:17.074Z,4.20
2023-01-26T15:15:02.751Z,4.72
2023-01-26T15:18:01.264Z,4.05
2023-01-26T15:21:01.070Z,3.50
2023-01-26T15:23:51.410Z,3.47
2023-01-26T15:29:30.903Z,3.40
2023-01-26T15:32:42.381Z,4.45
2023-01-26T15:35:33.061Z,3.13
2023-01-26T15:38:18.130Z,3.03
2023-01-26T15:41:03.412Z,3.35
2023-01-26T15:43:48.468Z,3.78
2023-01-26T15:46:33.379Z,3.50
2023-01-26T15:49:20.048Z,3.40
2023-01-26T15:52:21.266Z,3.47
2023-01-26T15:55:26.459Z,3.95
2023-01-26T15:58:12.239Z,3.95
2023-01-26T16:00:57.862Z,3.30
2023-01-26T16:03:43.100Z,3.38
2023-01-26T16:06:33.292Z,2.90
2023-01-26T16:09:18.548Z,4.93
2023-01-26T16:12:03.854Z,2.60
2023-01-26T16:14:49.239Z,2.88
2023-01-26T16:17:34.265Z,3.03
2023-01-26T16:20:19.519Z,3.20
2023-01-26T16:23:16.280Z,3.33
2023-01-26T16:26:01.396Z,3.42
2023-01-26T16:28:47.142Z,2.50
2023-01-26T16:31:34.548Z,2.85
2023-01-26T16:34:19.574Z,2.17
2023-01-26T16:37:04.459Z,2.78
2023-01-26T16:39:49.568Z,2.92
2023-01-26T16:42:38.653Z,2.53
2023-01-26T16:45:28.782Z,2.22
2023-01-26T16:51:02.977Z,2.40
2023-01-26T16:53:48.325Z,2.00
2023-01-26T16:56:33.327Z,3.42
2023-01-26T16:59:18.648Z,3.72
2023-01-26T17:02:04.186Z,4.80
2023-01-26T17:04:49.619Z,6.97
2023-01-26T17:07:34.781Z,8.23
2023-01-26T17:10:22.527Z,6.13
2023-01-26T17:13:09.585Z,8.50
2023-01-26T17:15:56.617Z,3.78
2023-01-26T17:18:42.550Z,5.60
2023-01-26T17:21:27.613Z,4.00
2023-01-26T17:24:12.907Z,3.78
2023-01-26T17:26:57.990Z,4.22
2023-01-26T17:29:43.213Z,3.38
2023-01-26T17:32:28.289Z,3.25
2023-01-26T17:35:13.629Z,3.63
2023-01-26T17:37:59.177Z,2.95
2023-01-26T17:40:44.509Z,3.05
2023-01-26T17:43:29.645Z,3.00
2023-01-26T17:46:16.967Z,3.08
2023-01-26T17:49:01.995Z,4.30
2023-01-26T17:51:47.702Z,4.15
2023-01-26T17:54:32.883Z,3.10
2023-01-26T17:57:17.960Z,3.58
2023-01-26T18:00:04.945Z,2.83
2023-01-26T18:02:50.238Z,3.00
2023-01-26T18:05:35.261Z,3.33
2023-01-26T18:08:21.058Z,3.20
2023-01-26T18:11:08.897Z,2.60
2023-01-26T18:13:54.238Z,2.42
2023-01-26T18:16:39.329Z,3.25
2023-01-26T18:19:24.671Z,2.50
2023-01-26T18:22:09.959Z,7.22
2023-01-26T18:24:55.109Z,5.63
2023-01-26T18:27:40.439Z,5.45
2023-01-26T18:30:25.631Z,3.25
2023-01-26T18:33:11.150Z,4.43
2023-01-26T18:36:03.474Z,3.28
2023-01-26T18:38:54.976Z,4.53
2023-01-26T18:41:40.819Z,3.50
2023-01-26T18:44:27.290Z,3.60
2023-01-26T18:47:12.882Z,3.80
2023-01-26T18:49:58.242Z,3.42
2023-01-26T18:52:43.206Z,3.13
2023-01-26T18:55:28.839Z,3.40
2023-01-26T18:58:13.771Z,3.38
2023-01-26T19:00:59.203Z,3.05
2023-01-26T19:03:47.396Z,2.72
2023-01-26T19:06:33.457Z,3.75
2023-01-26T19:09:18.614Z,4.15
2023-01-26T19:12:05.507Z,4.28
2023-01-26T19:14:50.524Z,4.93
2023-01-26T19:17:35.506Z,3.72
2023-01-26T19:20:20.276Z,3.72
2023-01-26T19:23:05.453Z,3.88
2023-01-26T19:25:50.722Z,3.58
2023-01-26T19:28:36.012Z,3.88
2023-01-26T19:31:22.325Z,3.30
2023-01-26T19:34:13.256Z,4.47
2023-01-26T19:36:58.253Z,4.22
2023-01-26T19:39:43.499Z,4.45
2023-01-26T19:42:28.506Z,3.92
2023-01-26T19:45:13.843Z,2.97
2023-01-26T19:47:59.368Z,5.85
2023-01-26T19:50:44.528Z,4.40
2023-01-26T19:53:31.606Z,3.63
2023-01-26T19:56:18.656Z,5.97
2023-01-26T19:59:06.324Z,3.45
2023-01-26T20:01:51.704Z,3.88
2023-01-26T20:04:36.796Z,3.25
2023-01-26T20:07:22.271Z,2.72
2023-01-26T20:10:07.737Z,4.10
2023-01-26T20:12:53.048Z,4.22
2023-01-26T20:15:38.425Z,2.28
2023-01-26T20:18:24.014Z,3.22
2023-01-26T20:21:09.116Z,2.42
2023-01-26T20:23:55.830Z,3.00
2023-01-26T20:26:44.340Z,4.15
2023-01-26T20:29:29.731Z,2.70
2023-01-26T20:32:14.723Z,3.28
2023-01-26T20:35:00.665Z,2.58
2023-01-26T20:37:45.684Z,2.08
2023-01-26T20:40:31.036Z,2.60
2023-01-26T20:43:16.189Z,2.30
2023-01-26T20:46:04.112Z,1.65
2023-01-26T20:48:49.249Z,2.20
2023-01-26T20:51:36.120Z,1.85
2023-01-26T20:54:22.156Z,1.77
2023-01-26T20:57:07.908Z,1.05
2023-01-26T20:59:53.200Z,1.30
2023-01-26T21:02:38.280Z,1.33
2023-01-26T21:05:23.332Z,2.00
2023-01-26T21:08:08.496Z,3.80
2023-01-26T21:10:53.623Z,2.60
2023-01-26T21:13:42.315Z,3.55
2023-01-26T21:16:28.667Z,2.42
2023-01-26T21:19:13.799Z,1.48
2023-01-26T21:21:59.470Z,1.70
2023-01-26T21:24:44.715Z,1.92
2023-01-26T21:27:30.211Z,1.33
2023-01-26T21:30:15.338Z,1.52
2023-01-26T21:33:00.621Z,1.25
2023-01-26T21:35:45.557Z,1.40
2023-01-26T21:38:33.684Z,0.80
2023-01-26T21:41:49.397Z,1.10
2023-01-26T21:44:57.554Z,1.33
2023-01-26T21:47:42.785Z,0.82
2023-01-26T21:50:48.084Z,0.93
2023-01-26T21:53:33.114Z,3.78
2023-01-26T21:56:18.176Z,4.10
2023-01-26T21:59:06.209Z,1.77
2023-01-26T22:01:53.651Z,1.70
2023-01-26T22:04:38.746Z,2.03
2023-01-26T22:07:23.817Z,1.63
2023-01-26T22:10:10.162Z,1.40
2023-01-26T22:12:55.391Z,1.60
2023-01-26T22:15:40.272Z,1.48
2023-01-26T22:18:25.243Z,1.80
2023-01-26T22:21:10.588Z,1.10
2023-01-26T22:23:55.781Z,1.67
2023-01-26T22:26:41.704Z,2.00
2023-01-26T22:29:27.015Z,1.42
2023-01-26T22:32:12.428Z,1.33
2023-01-26T22:34:57.661Z,1.40
2023-01-26T22:37:42.969Z,1.55
2023-01-26T22:40:27.934Z,1.38
2023-01-26T22:43:12.772Z,1.33
2023-01-26T22:46:03.428Z,1.83
2023-01-26T22:48:48.914Z,1.80
2023-01-26T22:51:37.112Z,1.88
2023-01-26T22:54:22.286Z,1.50
2023-01-26T22:57:07.655Z,1.83
2023-01-26T22:59:54.543Z,2.28
2023-01-26T23:02:39.728Z,2.15
2023-01-26T23:05:24.630Z,1.92
2023-01-26T23:08:09.867Z,1.60
2023-01-26T23:11:03.459Z,1.85
2023-01-26T23:13:51.310Z,1.73
2023-01-26T23:16:36.671Z,1.92
2023-01-26T23:19:22.211Z,1.95
2023-01-26T23:22:07.370Z,2.10
2023-01-26T23:25:11.194Z,1.70
2023-01-26T23:27:56.545Z,2.13
2023-01-26T23:30:41.923Z,2.05
2023-01-26T23:33:29.459Z,1.90
2023-01-26T23:36:15.538Z,2.05
2023-01-26T23:39:00.620Z,2.25
2023-01-26T23:41:45.745Z,2.22
2023-01-26T23:44:30.675Z,2.53
2023-01-26T23:47:15.743Z,1.70
2023-01-26T23:50:00.971Z,1.92
2023-01-26T23:52:45.886Z,1.55
2023-01-26T23:55:31.096Z,1.35
2023-01-26T23:58:16.285Z,1.75
